Terminal Aerodrome Forecast
Issued by NWS St Louis, MO

Home | Current Version | Previous Version | Text Only | Print | Product List | Glossary On
Versions: 1 2 3 4 5 6 7 8 9 10 11 12 13 14 15 16 17 18 19 20 21 22 23 24 25 26 27
222
FTUS43 KLSX 180206 AAA
TAFSTL
TAF AMD
KSTL 180206Z 1802/1906 22007KT P6SM OVC025
     FM180600 22006KT 6SM -DZ BR OVC015
     FM181300 24006KT P6SM OVC015
     FM181800 24009KT P6SM BKN025
     FM182300 22007KT P6SM SCT030=

USA.gov is the U.S. government's official web portal to all federal, state and local government web resources and services.